createdAt,value
2023-05-15T00:01:50.254Z,22.50
2023-05-15T00:11:54.278Z,20.20
2023-05-15T00:21:56.878Z,21.27
2023-05-15T00:32:00.848Z,21.80
2023-05-15T00:42:04.798Z,22.52
2023-05-15T00:52:09.118Z,22.13
2023-05-15T01:02:12.389Z,22.95
2023-05-15T01:12:17.880Z,23.63
2023-05-15T01:22:36.320Z,23.05
2023-05-15T01:32:44.627Z,22.55
2023-05-15T01:42:54.984Z,20.45
2023-05-15T01:53:01.621Z,19.60
2023-05-15T02:03:06.836Z,19.73
2023-05-15T02:13:11.250Z,16.35
2023-05-15T02:23:13.849Z,16.90
2023-05-15T02:33:29.192Z,15.38
2023-05-15T02:43:32.236Z,16.50
2023-05-15T02:53:40.925Z,16.42
2023-05-15T03:03:43.547Z,18.30
2023-05-15T03:13:47.507Z,17.95
2023-05-15T03:23:50.171Z,15.82
2023-05-15T03:33:54.163Z,15.68
2023-05-15T03:43:56.779Z,15.80
2023-05-15T03:54:00.768Z,15.55
2023-05-15T04:04:03.733Z,13.88
2023-05-15T04:14:07.673Z,14.10
2023-05-15T04:24:10.280Z,12.43
2023-05-15T04:34:14.283Z,14.38
2023-05-15T04:44:16.903Z,14.20
2023-05-15T04:54:20.921Z,15.27
2023-05-15T05:04:23.512Z,13.07
2023-05-15T05:14:27.807Z,15.77
2023-05-15T05:24:30.542Z,13.18
2023-05-15T05:34:34.485Z,16.80
2023-05-15T05:44:38.186Z,16.98
2023-05-15T05:54:42.191Z,16.08
2023-05-15T06:04:45.925Z,14.90
2023-05-15T06:14:50.051Z,15.43
2023-05-15T06:24:52.675Z,15.00
2023-05-15T06:34:56.696Z,12.95
2023-05-15T06:44:59.492Z,12.18
2023-05-15T06:55:03.476Z,12.15
2023-05-15T07:05:07.016Z,9.88
2023-05-15T07:15:11.830Z,14.57
2023-05-15T07:25:16.893Z,15.15
2023-05-15T07:35:21.114Z,14.70
2023-05-15T07:45:24.054Z,12.82
2023-05-15T07:55:28.284Z,14.18
2023-05-15T08:05:30.958Z,14.30
2023-05-15T08:15:34.981Z,14.20
2023-05-15T08:25:37.678Z,14.98
2023-05-15T08:35:41.628Z,15.32
2023-05-15T08:45:44.477Z,13.40
2023-05-15T08:55:48.640Z,14.80
2023-05-15T09:05:53.814Z,12.82
2023-05-15T09:15:57.863Z,13.27
2023-05-15T09:26:00.609Z,13.02
2023-05-15T09:36:06.339Z,14.50
2023-05-15T09:46:12.129Z,13.55
2023-05-15T09:56:16.755Z,12.75
2023-05-15T10:06:19.790Z,13.27
2023-05-15T10:16:23.984Z,12.80
2023-05-15T10:26:34.093Z,12.65
2023-05-15T10:36:39.188Z,12.65
2023-05-15T10:46:42.098Z,11.95
2023-05-15T10:56:46.099Z,11.00
2023-05-15T11:06:49.920Z,8.23
2023-05-15T11:17:04.993Z,5.72
2023-05-15T11:27:07.766Z,6.57
2023-05-15T11:37:18.650Z,5.15
2023-05-15T11:47:22.430Z,4.22
2023-05-15T11:57:26.406Z,4.00
2023-05-15T12:07:29.930Z,5.13
2023-05-15T12:17:34.058Z,6.32
2023-05-15T12:27:37.405Z,5.93
2023-05-15T12:37:42.903Z,5.50
2023-05-15T12:47:46.864Z,4.03
2023-05-15T12:57:51.277Z,4.68
2023-05-15T13:07:54.341Z,5.50
2023-05-15T13:18:01.766Z,5.72
2023-05-15T13:28:05.776Z,7.05
2023-05-15T13:38:11.715Z,6.22
2023-05-15T13:48:14.681Z,5.90
2023-05-15T13:58:18.678Z,6.20
2023-05-15T14:08:21.435Z,5.38
2023-05-15T14:18:26.256Z,7.13
2023-05-15T14:28:28.880Z,6.88
2023-05-15T14:38:33.391Z,6.03
2023-05-15T14:48:35.988Z,5.65
2023-05-15T14:58:39.997Z,5.13
2023-05-15T15:08:42.752Z,5.07
2023-05-15T15:18:46.830Z,4.90
2023-05-15T15:28:49.427Z,4.60
2023-05-15T15:38:53.636Z,4.95
2023-05-15T15:48:56.205Z,4.00
2023-05-15T15:59:00.186Z,3.55
2023-05-15T16:09:03.532Z,3.70
2023-05-15T16:19:07.618Z,3.65
2023-05-15T16:29:10.284Z,4.57
2023-05-15T16:39:14.273Z,3.65
2023-05-15T16:49:16.975Z,5.30
2023-05-15T16:59:21.299Z,5.57
2023-05-15T17:09:23.897Z,5.68
2023-05-15T17:19:27.820Z,5.35
2023-05-15T17:29:30.422Z,6.60
2023-05-15T17:39:34.390Z,6.57
2023-05-15T17:49:37.151Z,5.40
2023-05-15T17:59:41.102Z,5.35
2023-05-15T18:09:43.733Z,5.18
2023-05-15T18:19:47.732Z,5.78
2023-05-15T18:29:51.496Z,5.20
2023-05-15T18:39:56.913Z,6.88
2023-05-15T18:49:59.540Z,6.30
2023-05-15T19:00:03.998Z,5.25
2023-05-15T19:10:08.163Z,5.25
2023-05-15T19:20:12.874Z,3.65
2023-05-15T19:30:15.770Z,4.50
2023-05-15T19:40:20.043Z,3.60
2023-05-15T19:50:22.680Z,2.33
2023-05-15T20:00:27.179Z,2.92
2023-05-15T20:10:30.042Z,3.30
2023-05-15T20:20:34.063Z,3.25
2023-05-15T20:30:36.708Z,3.22
2023-05-15T20:40:40.809Z,3.00
2023-05-15T20:50:43.472Z,3.42
2023-05-15T21:00:47.687Z,2.72
2023-05-15T21:10:52.980Z,2.60
2023-05-15T21:20:56.998Z,2.95
2023-05-15T21:31:06.068Z,2.90
2023-05-15T21:41:10.110Z,2.50
2023-05-15T21:51:12.774Z,1.15
2023-05-15T22:01:17.609Z,1.23
2023-05-15T22:11:20.689Z,1.50
2023-05-15T22:21:25.124Z,1.35
2023-05-15T22:31:29.385Z,1.38
2023-05-15T22:41:33.609Z,1.23
2023-05-15T22:51:36.966Z,1.65
2023-05-15T23:01:41.210Z,1.80
2023-05-15T23:11:43.970Z,2.00
2023-05-15T23:21:47.989Z,2.00
2023-05-15T23:31:51.038Z,2.10
2023-05-15T23:41:55.533Z,2.15
2023-05-15T23:51:58.139Z,2.13
